Time;durP1;ratioP1;P1;durP2;ratioP2;P2;SDS_P1;SDS_P2;PMS_P1;PMS_P2;Temp;Humidity;BMP_temperature;BMP_pressure;BME280_temperature;BME280_humidity;BME280_pressure;Samples;Min_cycle;Max_cycle;Signal;HPM_P1;HPM_P2
2023/10/31 00:02:10;;;;;;;4.88;2.13;;;16.10;99.90;;;;;;5096105;28;20111;-79
2023/10/31 00:04:35;;;;;;;6.93;2.47;;;16.10;99.90;;;;;;5113189;28;20019;-79
2023/10/31 00:07:01;;;;;;;6.57;2.50;;;16.00;99.90;;;;;;5112853;28;20034;-80
2023/10/31 00:09:26;;;;;;;5.70;2.50;;;16.00;99.90;;;;;;5113469;28;20108;-80
2023/10/31 00:11:52;;;;;;;4.30;2.03;;;16.00;99.90;;;;;;5113298;28;20520;-80
2023/10/31 00:14:18;;;;;;;5.35;2.40;;;16.00;99.90;;;;;;5113307;28;20357;-79
2023/10/31 00:16:43;;;;;;;7.22;2.30;;;16.00;99.90;;;;;;5113213;28;20020;-79
2023/10/31 00:19:09;;;;;;;4.15;2.22;;;16.10;99.90;;;;;;5095333;28;20034;-79
2023/10/31 00:21:35;;;;;;;5.10;1.98;;;16.10;99.90;;;;;;5113283;28;20024;-80
2023/10/31 00:24:03;;;;;;;6.35;2.40;;;16.10;99.90;;;;;;5112789;28;20191;-80
2023/10/31 00:26:28;;;;;;;7.15;2.28;;;16.10;99.90;;;;;;5113334;28;20360;-79
2023/10/31 00:28:54;;;;;;;8.00;2.20;;;16.10;99.90;;;;;;5112952;28;20024;-80
2023/10/31 00:31:20;;;;;;;4.28;2.00;;;16.10;99.90;;;;;;5113409;28;20129;-79
2023/10/31 00:33:45;;;;;;;3.97;1.77;;;16.10;99.90;;;;;;5112863;28;20020;-79
2023/10/31 00:36:11;;;;;;;7.55;2.30;;;16.10;99.90;;;;;;5113588;28;20038;-79
2023/10/31 00:38:37;;;;;;;10.60;2.20;;;16.10;99.90;;;;;;5113645;28;20024;-80
2023/10/31 00:41:03;;;;;;;5.43;2.03;;;16.10;99.90;;;;;;5113133;28;20687;-80
2023/10/31 00:43:28;;;;;;;8.40;2.00;;;16.00;99.90;;;;;;5113174;28;20020;-79
2023/10/31 00:45:54;;;;;;;5.20;2.22;;;16.00;99.90;;;;;;5125039;28;20127;-79
2023/10/31 00:48:20;;;;;;;4.70;2.47;;;16.00;99.90;;;;;;5133434;28;20019;-79
2023/10/31 00:50:46;;;;;;;5.10;2.10;;;16.00;99.90;;;;;;5133528;28;20031;-78
2023/10/31 00:53:13;;;;;;;5.00;2.20;;;16.00;99.90;;;;;;5133370;28;20019;-80
2023/10/31 00:55:39;;;;;;;5.95;2.22;;;16.00;99.90;;;;;;5133852;28;20368;-80
2023/10/31 00:58:04;;;;;;;6.00;2.30;;;16.00;99.90;;;;;;5132919;27;20051;-81
2023/10/31 01:00:30;;;;;;;3.15;2.10;;;16.00;99.90;;;;;;5133974;28;20063;-80
2023/10/31 01:02:55;;;;;;;3.90;1.98;;;16.00;99.90;;;;;;5133185;28;20019;-79
2023/10/31 01:05:21;;;;;;;4.68;2.72;;;16.00;99.90;;;;;;5127011;28;20434;-80
2023/10/31 01:07:47;;;;;;;6.72;2.30;;;16.00;99.90;;;;;;5112988;28;20114;-78
2023/10/31 01:10:12;;;;;;;5.68;2.08;;;16.00;99.90;;;;;;5112635;28;20064;-80
2023/10/31 01:12:38;;;;;;;5.63;2.10;;;16.00;99.90;;;;;;5113033;28;20035;-79
2023/10/31 01:15:04;;;;;;;6.78;2.15;;;16.00;99.90;;;;;;5112948;28;20468;-80
2023/10/31 01:17:30;;;;;;;2.75;1.83;;;16.00;99.90;;;;;;5115916;28;20426;-80
2023/10/31 01:19:55;;;;;;;4.55;2.30;;;16.00;99.90;;;;;;5098212;28;20024;-78
2023/10/31 01:22:21;;;;;;;5.45;1.98;;;16.00;99.90;;;;;;5098604;28;20049;-79
2023/10/31 01:24:47;;;;;;;6.78;2.20;;;16.00;99.90;;;;;;5116571;28;20035;-77
2023/10/31 01:27:12;;;;;;;7.18;2.47;;;16.00;99.90;;;;;;5116978;28;20491;-80
2023/10/31 01:29:38;;;;;;;6.18;2.13;;;16.00;99.90;;;;;;5116353;28;20031;-80
2023/10/31 01:32:04;;;;;;;7.75;2.33;;;16.00;99.90;;;;;;5116121;28;20027;-80
2023/10/31 01:34:30;;;;;;;5.40;2.25;;;16.00;99.90;;;;;;5097919;28;20032;-80
2023/10/31 01:36:55;;;;;;;3.17;2.03;;;16.00;99.90;;;;;;5115437;28;20035;-79
2023/10/31 01:39:21;;;;;;;3.67;2.10;;;16.00;99.90;;;;;;5116108;28;20066;-80
2023/10/31 01:41:47;;;;;;;4.22;2.10;;;16.00;99.90;;;;;;5099340;28;20067;-80
2023/10/31 01:44:12;;;;;;;4.43;2.25;;;16.00;99.90;;;;;;5118983;28;20349;-79
2023/10/31 01:46:38;;;;;;;4.20;2.03;;;16.00;99.90;;;;;;5119802;28;20444;-79
2023/10/31 01:49:04;;;;;;;7.10;2.63;;;16.00;99.90;;;;;;5120462;28;20034;-80
2023/10/31 01:51:29;;;;;;;7.00;2.33;;;16.00;99.90;;;;;;5118514;28;20027;-80
2023/10/31 01:53:56;;;;;;;4.85;2.13;;;16.00;99.90;;;;;;5117263;28;20032;-80
2023/10/31 01:56:22;;;;;;;7.22;2.13;;;16.00;99.90;;;;;;5116978;28;20076;-79
2023/10/31 01:58:49;;;;;;;3.35;2.10;;;16.00;99.90;;;;;;5098497;28;20114;-80
2023/10/31 02:01:15;;;;;;;3.83;2.00;;;16.00;99.90;;;;;;5116214;28;20032;-80
2023/10/31 02:03:41;;;;;;;8.20;2.70;;;16.00;99.90;;;;;;5115946;28;20357;-80
2023/10/31 02:06:07;;;;;;;5.97;2.42;;;16.00;99.90;;;;;;5115711;28;20205;-80
2023/10/31 02:08:33;;;;;;;7.03;2.30;;;16.00;99.90;;;;;;5116150;28;20067;-80
2023/10/31 02:10:58;;;;;;;5.35;2.20;;;16.00;99.90;;;;;;5115324;28;20035;-80
2023/10/31 02:13:24;;;;;;;4.78;2.50;;;16.00;99.90;;;;;;5115793;28;20042;-78
2023/10/31 02:15:50;;;;;;;5.20;2.13;;;16.00;99.70;;;;;;5115821;28;20060;-80
2023/10/31 02:18:16;;;;;;;4.10;2.00;;;16.00;99.70;;;;;;5115286;28;20363;-78
2023/10/31 02:20:41;;;;;;;8.20;2.17;;;16.00;99.40;;;;;;5115776;28;20031;-79
2023/10/31 02:23:07;;;;;;;3.97;2.42;;;16.10;99.40;;;;;;5114879;28;20067;-80
2023/10/31 02:25:33;;;;;;;8.65;2.30;;;16.10;99.30;;;;;;5115643;28;20039;-80
2023/10/31 02:27:58;;;;;;;7.15;2.67;;;16.00;99.10;;;;;;5114119;28;20035;-79
2023/10/31 02:30:25;;;;;;;4.47;2.78;;;16.10;99.00;;;;;;5115366;28;20028;-79
2023/10/31 02:32:50;;;;;;;4.53;2.10;;;16.10;98.80;;;;;;5115251;28;20511;-79
2023/10/31 02:35:17;;;;;;;5.43;2.20;;;16.10;98.70;;;;;;5115520;28;20066;-80
2023/10/31 02:37:44;;;;;;;7.97;2.40;;;16.00;98.80;;;;;;5115149;28;20486;-80
2023/10/31 02:40:10;;;;;;;7.45;2.17;;;16.00;98.80;;;;;;5115097;28;20026;-79
2023/10/31 02:42:36;;;;;;;5.72;2.15;;;16.10;98.90;;;;;;5115383;28;20035;-79
2023/10/31 02:45:03;;;;;;;9.02;2.17;;;16.10;98.90;;;;;;5115319;28;20028;-79
2023/10/31 02:47:28;;;;;;;4.30;2.00;;;16.10;98.90;;;;;;5126038;27;20121;-79
2023/10/31 02:49:54;;;;;;;8.73;2.58;;;16.10;98.70;;;;;;5135680;27;20063;-76
2023/10/31 02:52:20;;;;;;;3.97;1.70;;;16.10;98.80;;;;;;5135614;27;20451;-80
2023/10/31 02:54:45;;;;;;;3.90;2.17;;;16.10;98.70;;;;;;5135491;27;20019;-80
2023/10/31 02:57:11;;;;;;;6.47;2.10;;;16.10;98.70;;;;;;5135056;27;20538;-80
2023/10/31 02:59:37;;;;;;;3.13;1.70;;;16.10;98.70;;;;;;5135462;27;20019;-80
2023/10/31 03:02:02;;;;;;;6.80;2.25;;;16.10;98.80;;;;;;5135063;27;20470;-80
2023/10/31 03:04:28;;;;;;;6.50;2.33;;;16.10;98.50;;;;;;5135456;27;20023;-80
2023/10/31 03:06:53;;;;;;;6.10;2.70;;;16.00;98.40;;;;;;5135273;27;20512;-80
2023/10/31 03:09:19;;;;;;;5.53;2.28;;;16.00;98.50;;;;;;5124151;27;20028;-79
2023/10/31 03:11:45;;;;;;;4.90;2.08;;;16.00;98.40;;;;;;5096492;28;20456;-80
2023/10/31 03:14:10;;;;;;;4.13;2.08;;;16.10;98.40;;;;;;5114135;28;20023;-80
2023/10/31 03:16:36;;;;;;;4.75;2.25;;;16.10;98.40;;;;;;5114886;28;20024;-80
2023/10/31 03:19:01;;;;;;;5.25;2.13;;;16.10;98.60;;;;;;5114614;28;20432;-81
2023/10/31 03:21:27;;;;;;;6.47;2.30;;;16.00;98.50;;;;;;5114779;28;20032;-80
2023/10/31 03:23:55;;;;;;;6.38;2.00;;;16.00;98.90;;;;;;5115224;28;20024;-79
2023/10/31 03:26:21;;;;;;;5.82;1.95;;;16.00;98.90;;;;;;5114094;28;20547;-80
2023/10/31 03:28:48;;;;;;;3.83;2.10;;;16.00;99.10;;;;;;5114934;28;20120;-80
2023/10/31 03:31:14;;;;;;;5.65;1.98;;;16.00;99.40;;;;;;5114213;28;20181;-80
2023/10/31 03:33:41;;;;;;;1.63;1.30;;;16.00;99.90;;;;;;5114903;28;20019;-79
2023/10/31 03:36:08;;;;;;;2.00;1.33;;;16.00;99.90;;;;;;5114284;28;20063;-80
2023/10/31 03:38:37;;;;;;;2.13;1.50;;;16.00;99.90;;;;;;5114669;28;20028;-79
2023/10/31 03:41:02;;;;;;;4.07;1.00;;;16.00;99.90;;;;;;5114093;28;20030;-79
2023/10/31 03:43:28;;;;;;;2.83;1.20;;;16.00;99.90;;;;;;5114391;28;20095;-78
2023/10/31 03:45:54;;;;;;;2.17;1.15;;;16.00;99.90;;;;;;5114389;28;20441;-79
2023/10/31 03:48:20;;;;;;;2.40;0.90;;;15.90;99.90;;;;;;5113980;28;20023;-78
2023/10/31 03:50:46;;;;;;;2.88;1.10;;;15.90;99.90;;;;;;5114197;28;20348;-78
2023/10/31 03:53:12;;;;;;;0.68;0.68;;;15.90;99.90;;;;;;5113782;28;20027;-79
2023/10/31 03:55:37;;;;;;;1.15;0.60;;;15.90;99.90;;;;;;5114571;28;20110;-79
2023/10/31 03:58:03;;;;;;;0.60;0.60;;;15.90;99.90;;;;;;5114474;28;20106;-80
2023/10/31 04:00:29;;;;;;;0.40;0.40;;;15.80;99.90;;;;;;5113981;28;20030;-80
2023/10/31 04:02:55;;;;;;;1.00;0.77;;;15.80;99.90;;;;;;5096062;28;20032;-80
2023/10/31 04:05:22;;;;;;;1.23;0.50;;;15.80;99.90;;;;;;5113953;28;20046;-79
2023/10/31 04:07:48;;;;;;;1.35;0.60;;;15.70;99.90;;;;;;5114103;28;20102;-79
2023/10/31 04:10:15;;;;;;;1.65;0.43;;;15.70;99.90;;;;;;5113785;28;20059;-80
2023/10/31 04:12:40;;;;;;;0.75;0.60;;;15.70;99.90;;;;;;5114055;28;20028;-80
2023/10/31 04:15:07;;;;;;;0.80;0.50;;;15.60;99.90;;;;;;5113786;28;20035;-79
2023/10/31 04:17:33;;;;;;;1.30;0.50;;;15.60;99.90;;;;;;5114172;28;20085;-79
2023/10/31 04:19:59;;;;;;;0.90;0.60;;;15.60;99.90;;;;;;5114114;28;20031;-80
2023/10/31 04:22:24;;;;;;;0.98;0.77;;;15.60;99.90;;;;;;5113440;28;20020;-80
2023/10/31 04:24:50;;;;;;;1.95;0.50;;;15.50;99.90;;;;;;5114034;28;20457;-80
2023/10/31 04:27:15;;;;;;;0.47;0.47;;;15.50;99.90;;;;;;5113615;28;20023;-79
2023/10/31 04:29:41;;;;;;;0.70;0.50;;;15.50;99.90;;;;;;5114173;28;20353;-80
2023/10/31 04:32:07;;;;;;;1.33;0.60;;;15.50;99.90;;;;;;5113541;28;20035;-79
2023/10/31 04:34:33;;;;;;;0.63;0.40;;;15.50;99.90;;;;;;5095908;28;20027;-79
2023/10/31 04:36:58;;;;;;;0.40;0.40;;;15.50;99.90;;;;;;5114070;28;20024;-79
2023/10/31 04:39:24;;;;;;;1.13;0.60;;;15.40;99.90;;;;;;5113226;28;20028;-78
2023/10/31 04:41:50;;;;;;;0.90;0.60;;;15.40;99.90;;;;;;5113455;28;20485;-79
2023/10/31 04:44:16;;;;;;;0.90;0.80;;;15.40;99.90;;;;;;5113496;28;20104;-80
2023/10/31 04:46:42;;;;;;;1.02;0.57;;;15.40;99.90;;;;;;5113364;28;20054;-79
2023/10/31 04:49:08;;;;;;;1.48;0.70;;;15.40;99.90;;;;;;5112676;28;20467;-78
2023/10/31 04:51:37;;;;;;;0.75;0.60;;;15.30;99.90;;;;;;5119994;27;20027;-79
2023/10/31 04:54:03;;;;;;;2.25;0.70;;;15.30;99.90;;;;;;5139977;27;20034;-79
2023/10/31 04:56:29;;;;;;;0.88;0.80;;;15.30;99.90;;;;;;5149386;27;20031;-79
2023/10/31 04:58:55;;;;;;;1.38;1.00;;;15.30;99.90;;;;;;5150954;27;20035;-80
2023/10/31 05:01:20;;;;;;;0.70;0.60;;;15.30;99.90;;;;;;5146311;27;20038;-79
2023/10/31 05:03:46;;;;;;;0.70;0.60;;;15.30;99.90;;;;;;5143720;27;20034;-79
2023/10/31 05:06:12;;;;;;;1.13;0.70;;;15.30;99.90;;;;;;5142269;27;20038;-79
2023/10/31 05:08:37;;;;;;;0.75;0.60;;;15.30;99.90;;;;;;5124618;27;20027;-78
2023/10/31 05:11:03;;;;;;;0.73;0.50;;;15.30;99.90;;;;;;5118695;28;20454;-80
2023/10/31 05:13:29;;;;;;;0.82;0.70;;;15.30;99.90;;;;;;5117365;28;20024;-79
2023/10/31 05:15:55;;;;;;;0.70;0.63;;;15.30;99.90;;;;;;5117313;28;20020;-80
2023/10/31 05:18:21;;;;;;;1.05;0.65;;;15.30;99.90;;;;;;5116649;28;20020;-78
2023/10/31 05:20:47;;;;;;;2.20;0.60;;;15.30;99.90;;;;;;5117068;28;20117;-79
2023/10/31 05:23:13;;;;;;;0.95;0.52;;;15.30;99.90;;;;;;5116378;28;20114;-78
2023/10/31 05:25:38;;;;;;;0.68;0.60;;;15.20;99.90;;;;;;5116656;28;20110;-80
2023/10/31 05:28:05;;;;;;;0.80;0.63;;;15.20;99.90;;;;;;5098297;28;20302;-80
2023/10/31 05:30:30;;;;;;;1.73;0.80;;;15.20;99.90;;;;;;5115653;28;20232;-80
2023/10/31 05:32:56;;;;;;;0.68;0.63;;;15.20;99.90;;;;;;5116449;28;20051;-80
2023/10/31 05:35:22;;;;;;;0.60;0.50;;;15.20;99.90;;;;;;5097892;28;20114;-80
2023/10/31 05:37:48;;;;;;;0.90;0.52;;;15.20;99.90;;;;;;5116579;28;20036;-80
2023/10/31 05:40:15;;;;;;;3.10;0.68;;;15.10;99.90;;;;;;5116095;28;20073;-79
2023/10/31 05:42:40;;;;;;;0.77;0.60;;;15.10;99.90;;;;;;5116786;28;20027;-80
2023/10/31 05:45:06;;;;;;;2.65;0.77;;;15.00;99.90;;;;;;5116957;28;20027;-78
2023/10/31 05:47:32;;;;;;;0.52;0.52;;;15.00;99.90;;;;;;5129049;27;20071;-78
2023/10/31 05:49:58;;;;;;;1.17;0.60;;;14.90;99.90;;;;;;5138434;27;20119;-78
2023/10/31 05:52:29;;;;;;;0.45;0.45;;;14.90;99.90;;;;;;5137182;27;20061;-79
2023/10/31 05:54:55;;;;;;;0.50;0.50;;;14.80;99.90;;;;;;5136739;27;20386;-80
2023/10/31 05:57:20;;;;;;;0.80;0.50;;;14.80;99.90;;;;;;5135947;27;20042;-78
2023/10/31 05:59:46;;;;;;;1.67;0.60;;;14.70;99.90;;;;;;5136714;27;20038;-82
2023/10/31 06:02:13;;;;;;;0.55;0.55;;;14.70;99.90;;;;;;5136270;27;20034;-78
2023/10/31 06:04:38;;;;;;;0.55;0.45;;;14.70;99.90;;;;;;5136773;27;20032;-74
2023/10/31 06:07:04;;;;;;;0.40;0.40;;;14.70;99.90;;;;;;5136547;27;20038;-74
2023/10/31 06:09:29;;;;;;;0.85;0.50;;;14.70;99.90;;;;;;5131887;27;20027;-75
2023/10/31 06:11:55;;;;;;;0.35;0.35;;;14.60;99.90;;;;;;5133450;27;20020;-75
2023/10/31 06:14:21;;;;;;;1.20;0.47;;;14.70;99.90;;;;;;5135354;27;20076;-76
2023/10/31 06:16:47;;;;;;;0.60;0.50;;;14.60;99.90;;;;;;5135827;27;20029;-77
2023/10/31 06:19:12;;;;;;;0.95;0.57;;;14.60;99.90;;;;;;5133029;27;20106;-76
2023/10/31 06:21:38;;;;;;;1.95;0.73;;;14.60;99.90;;;;;;5135945;27;20053;-76
2023/10/31 06:24:04;;;;;;;2.10;0.60;;;14.60;99.90;;;;;;5130451;27;20390;-76
2023/10/31 06:26:29;;;;;;;0.73;0.50;;;14.60;99.90;;;;;;5131517;27;20058;-75
2023/10/31 06:28:55;;;;;;;0.45;0.45;;;14.60;99.90;;;;;;5125444;27;20156;-76
2023/10/31 06:31:21;;;;;;;2.97;0.55;;;14.60;99.90;;;;;;5118421;27;20030;-75
2023/10/31 06:33:46;;;;;;;2.60;0.55;;;14.50;99.90;;;;;;5135590;27;20031;-76
2023/10/31 06:36:12;;;;;;;0.60;0.50;;;14.50;99.90;;;;;;5135758;27;20031;-74
2023/10/31 06:38:38;;;;;;;3.50;0.55;;;14.50;99.90;;;;;;5135871;27;20364;-75
2023/10/31 06:41:04;;;;;;;0.85;0.45;;;14.50;99.90;;;;;;5117879;27;20031;-76
2023/10/31 06:43:29;;;;;;;0.47;0.40;;;14.50;99.90;;;;;;5135852;27;20379;-76
2023/10/31 06:45:55;;;;;;;0.50;0.50;;;14.50;99.90;;;;;;5135682;27;20120;-76
2023/10/31 06:48:21;;;;;;;0.70;0.50;;;14.50;99.90;;;;;;5135222;27;20054;-75
2023/10/31 06:50:46;;;;;;;0.40;0.40;;;14.50;99.90;;;;;;5136127;27;20379;-75
2023/10/31 06:53:12;;;;;;;0.80;0.52;;;14.40;99.90;;;;;;5135320;27;20027;-76
2023/10/31 06:55:38;;;;;;;1.85;0.52;;;14.50;99.90;;;;;;5135063;27;20031;-76
2023/10/31 06:58:03;;;;;;;3.03;0.40;;;14.40;99.90;;;;;;5135232;27;20059;-76
2023/10/31 07:00:29;;;;;;;0.40;0.40;;;14.40;99.90;;;;;;5116359;27;20063;-75
2023/10/31 07:02:55;;;;;;;1.73;0.40;;;14.40;99.90;;;;;;5114938;28;20024;-76
2023/10/31 07:05:20;;;;;;;0.50;0.50;;;14.30;99.90;;;;;;5114546;28;20074;-75
2023/10/31 07:07:49;;;;;;;0.43;0.38;;;14.30;99.90;;;;;;5132340;27;20085;-75
2023/10/31 07:10:14;;;;;;;1.85;0.40;;;14.30;99.90;;;;;;5135260;27;20027;-76
2023/10/31 07:12:40;;;;;;;0.30;0.30;;;14.30;99.90;;;;;;5134616;27;20026;-75
2023/10/31 07:15:06;;;;;;;1.27;0.47;;;14.30;99.70;;;;;;5134885;27;20031;-76
2023/10/31 07:17:32;;;;;;;0.50;0.50;;;14.30;99.80;;;;;;5134707;27;20032;-76
2023/10/31 07:19:58;;;;;;;0.38;0.30;;;14.20;99.50;;;;;;5134633;27;20030;-75
2023/10/31 07:22:24;;;;;;;0.85;0.60;;;14.10;99.70;;;;;;5134729;27;20027;-76
2023/10/31 07:24:51;;;;;;;0.50;0.40;;;14.20;99.80;;;;;;5135097;27;20110;-75
2023/10/31 07:27:17;;;;;;;1.73;0.45;;;14.10;99.60;;;;;;5134769;27;20451;-76
2023/10/31 07:29:43;;;;;;;0.60;0.40;;;14.10;99.50;;;;;;5135232;27;20030;-76
2023/10/31 07:32:09;;;;;;;1.60;0.43;;;14.10;99.50;;;;;;5134826;27;20356;-76
2023/10/31 07:34:35;;;;;;;0.35;0.35;;;14.10;99.50;;;;;;5134475;27;20028;-77
2023/10/31 07:37:00;;;;;;;0.73;0.40;;;14.10;99.50;;;;;;5134700;27;20100;-75
2023/10/31 07:39:26;;;;;;;0.77;0.43;;;14.00;99.60;;;;;;5134209;27;20023;-75
2023/10/31 07:41:52;;;;;;;0.73;0.50;;;14.00;99.60;;;;;;5134746;27;20023;-75
2023/10/31 07:44:17;;;;;;;2.05;0.40;;;14.00;99.70;;;;;;5116211;27;20031;-75
2023/10/31 07:46:43;;;;;;;2.28;0.95;;;14.00;99.70;;;;;;5133966;27;20057;-75
2023/10/31 07:49:09;;;;;;;0.40;0.40;;;14.00;99.90;;;;;;5134577;27;20348;-76
2023/10/31 07:51:34;;;;;;;1.85;0.68;;;14.00;99.80;;;;;;5134225;27;20063;-75
2023/10/31 07:54:00;;;;;;;1.02;0.63;;;14.00;99.80;;;;;;5134302;27;20474;-76
2023/10/31 07:56:26;;;;;;;1.90;0.40;;;14.00;99.80;;;;;;5133696;27;20404;-76
2023/10/31 07:58:52;;;;;;;0.98;0.50;;;14.00;99.80;;;;;;5115960;27;20126;-76
2023/10/31 08:01:18;;;;;;;0.63;0.30;;;14.00;99.70;;;;;;5134397;27;20071;-76
2023/10/31 08:03:48;;;;;;;0.60;0.50;;;14.00;99.80;;;;;;5133713;27;20419;-76
2023/10/31 08:06:14;;;;;;;3.00;0.50;;;14.00;99.80;;;;;;5134075;27;20027;-75
2023/10/31 08:08:39;;;;;;;1.88;0.45;;;13.90;99.80;;;;;;5133824;27;20029;-77
2023/10/31 08:11:09;;;;;;;2.72;0.50;;;14.00;99.70;;;;;;5133985;27;20015;-75
2023/10/31 08:13:37;;;;;;;1.10;0.50;;;14.00;99.40;;;;;;5133845;27;20023;-75
2023/10/31 08:16:03;;;;;;;1.88;0.47;;;14.00;99.40;;;;;;5134202;27;20106;-77
2023/10/31 08:18:29;;;;;;;1.88;0.60;;;14.00;99.20;;;;;;5134051;27;20029;-76
2023/10/31 08:20:54;;;;;;;1.05;0.60;;;14.00;99.10;;;;;;5117190;27;20087;-75
2023/10/31 08:23:20;;;;;;;1.77;0.45;;;14.00;99.20;;;;;;5138373;27;20359;-76
2023/10/31 08:25:46;;;;;;;0.73;0.40;;;14.00;98.90;;;;;;5147794;27;20035;-76
2023/10/31 08:28:12;;;;;;;3.38;0.60;;;14.00;98.30;;;;;;5121139;28;20023;-76
2023/10/31 08:30:38;;;;;;;0.40;0.38;;;14.00;98.20;;;;;;5136335;27;20061;-76
2023/10/31 08:33:04;;;;;;;1.05;0.55;;;14.00;97.80;;;;;;5134520;28;20379;-76
2023/10/31 08:35:30;;;;;;;1.05;0.45;;;14.00;97.80;;;;;;5133759;28;20027;-76
2023/10/31 08:37:55;;;;;;;1.02;0.70;;;14.00;97.70;;;;;;5134163;28;20020;-75
2023/10/31 08:40:21;;;;;;;1.27;0.52;;;14.10;97.60;;;;;;5133766;28;20027;-76
2023/10/31 08:42:46;;;;;;;0.68;0.40;;;14.10;97.10;;;;;;5133526;28;20076;-76
2023/10/31 08:45:12;;;;;;;0.40;0.40;;;14.10;97.00;;;;;;5133804;28;20031;-76
2023/10/31 08:47:38;;;;;;;0.88;0.60;;;14.10;97.10;;;;;;5133215;28;20034;-75
2023/10/31 08:50:04;;;;;;;3.20;0.95;;;14.10;96.80;;;;;;5133935;28;20479;-77
2023/10/31 08:52:30;;;;;;;2.70;0.50;;;14.10;96.70;;;;;;5133442;28;20054;-76
2023/10/31 08:54:55;;;;;;;3.55;1.13;;;14.10;96.60;;;;;;5111828;28;20047;-76
2023/10/31 08:57:22;;;;;;;1.75;0.40;;;14.10;96.20;;;;;;5133500;28;20168;-75
2023/10/31 08:59:47;;;;;;;1.38;0.65;;;14.10;95.90;;;;;;5133334;28;20490;-76
2023/10/31 09:02:13;;;;;;;2.72;0.60;;;14.10;95.90;;;;;;5115386;28;20027;-77
2023/10/31 09:04:39;;;;;;;1.52;0.60;;;14.10;95.80;;;;;;5133238;28;20053;-77
2023/10/31 09:07:04;;;;;;;1.90;0.60;;;14.10;95.70;;;;;;5133251;28;20039;-74
2023/10/31 09:09:30;;;;;;;3.75;0.60;;;14.10;95.70;;;;;;5133116;28;20023;-74
2023/10/31 09:11:55;;;;;;;1.15;0.45;;;14.00;96.00;;;;;;5133794;28;20054;-76
2023/10/31 09:14:21;;;;;;;1.27;0.40;;;14.00;96.00;;;;;;5133391;28;20027;-75
2023/10/31 09:16:47;;;;;;;2.92;0.88;;;14.00;95.80;;;;;;5132822;28;20058;-76
2023/10/31 09:19:12;;;;;;;1.10;0.60;;;14.00;95.80;;;;;;5133447;28;20031;-76
2023/10/31 09:21:38;;;;;;;1.02;0.50;;;14.00;96.00;;;;;;5133014;28;20422;-75
2023/10/31 09:24:04;;;;;;;2.35;0.68;;;14.00;95.90;;;;;;5133920;28;20098;-75
2023/10/31 09:26:30;;;;;;;2.55;0.65;;;14.00;95.90;;;;;;5133019;28;20108;-75
2023/10/31 09:28:55;;;;;;;2.33;0.63;;;14.00;95.60;;;;;;5133149;28;20023;-75
2023/10/31 09:31:21;;;;;;;2.08;0.52;;;14.00;95.80;;;;;;5132926;28;20031;-76
2023/10/31 09:33:47;;;;;;;0.50;0.50;;;14.00;95.80;;;;;;5132864;28;20028;-76
2023/10/31 09:36:14;;;;;;;0.77;0.60;;;14.00;95.80;;;;;;5133102;28;20027;-75
2023/10/31 09:38:40;;;;;;;0.90;0.50;;;13.90;96.10;;;;;;5135959;27;20027;-75
2023/10/31 09:41:06;;;;;;;0.95;0.60;;;13.90;95.90;;;;;;5137067;27;20118;-75
2023/10/31 09:43:31;;;;;;;0.40;0.40;;;13.90;96.10;;;;;;5118138;27;20042;-75
2023/10/31 09:46:00;;;;;;;0.85;0.50;;;13.90;96.40;;;;;;5136977;27;20031;-75
2023/10/31 09:48:26;;;;;;;0.70;0.50;;;13.90;96.90;;;;;;5137258;27;20054;-75
2023/10/31 09:50:53;;;;;;;1.67;0.80;;;13.80;97.10;;;;;;5136655;27;20471;-76
2023/10/31 09:53:19;;;;;;;1.02;0.70;;;13.80;97.60;;;;;;5137116;27;20027;-76
2023/10/31 09:55:46;;;;;;;4.25;0.95;;;13.80;98.40;;;;;;5136345;27;20054;-75
2023/10/31 09:58:12;;;;;;;2.15;1.00;;;13.70;99.20;;;;;;5136830;27;20475;-75
2023/10/31 10:00:40;;;;;;;2.17;1.10;;;13.70;99.60;;;;;;5136080;27;20027;-75
2023/10/31 10:03:09;;;;;;;1.40;0.90;;;13.60;99.90;;;;;;5136538;27;20379;-76
2023/10/31 10:05:36;;;;;;;3.53;0.85;;;13.60;99.90;;;;;;5117684;27;20124;-76
2023/10/31 10:08:03;;;;;;;1.80;0.85;;;13.50;99.90;;;;;;5136516;27;20462;-76
2023/10/31 10:10:29;;;;;;;2.17;0.90;;;13.50;99.90;;;;;;5136137;27;20105;-76
2023/10/31 10:12:55;;;;;;;1.77;0.90;;;13.50;99.90;;;;;;5135946;27;20444;-75
2023/10/31 10:15:21;;;;;;;2.00;0.60;;;13.40;99.90;;;;;;5136151;27;20114;-75
2023/10/31 10:17:51;;;;;;;2.92;0.80;;;13.40;99.90;;;;;;5135856;27;20058;-76
2023/10/31 10:20:18;;;;;;;3.50;0.80;;;13.30;99.90;;;;;;5136439;27;20054;-76
2023/10/31 10:22:44;;;;;;;1.42;0.60;;;13.30;99.90;;;;;;5135714;27;20038;-76
2023/10/31 10:25:15;;;;;;;2.70;0.70;;;13.20;99.90;;;;;;5136231;27;20114;-76
2023/10/31 10:27:41;;;;;;;3.63;0.73;;;13.10;99.90;;;;;;5135852;27;20111;-76
2023/10/31 10:30:08;;;;;;;3.95;0.88;;;13.10;99.90;;;;;;5118212;27;20035;-76
2023/10/31 10:32:34;;;;;;;2.47;0.88;;;13.00;99.90;;;;;;5135667;27;20037;-76
2023/10/31 10:35:00;;;;;;;3.30;0.80;;;13.00;99.90;;;;;;5136202;27;20438;-75
2023/10/31 10:37:27;;;;;;;3.20;0.95;;;12.90;99.90;;;;;;5135750;27;20035;-76
2023/10/31 10:39:56;;;;;;;3.25;1.02;;;12.90;99.90;;;;;;5135525;27;20034;-76
2023/10/31 10:42:49;;;;;;;4.90;0.85;;;12.80;99.90;;;;;;5135577;27;20026;-76
2023/10/31 10:45:16;;;;;;;2.65;0.90;;;12.70;99.90;;;;;;5135629;27;20064;-75
2023/10/31 10:47:46;;;;;;;1.30;0.80;;;12.70;99.90;;;;;;5135191;27;20411;-76
2023/10/31 10:50:13;;;;;;;4.03;1.07;;;12.60;99.90;;;;;;5135052;27;20102;-76
2023/10/31 10:52:48;;;;;;;2.92;0.70;;;12.60;99.90;;;;;;5134819;27;20608;-75
2023/10/31 10:55:23;;;;;;;5.38;1.08;;;12.50;99.90;;;;;;5133069;27;20023;-76
2023/10/31 10:58:01;;;;;;;5.93;1.67;;;12.50;99.90;;;;;;5134738;27;20050;-76
2023/10/31 11:00:26;;;;;;;3.22;0.73;;;12.40;99.90;;;;;;5135706;27;20031;-75
2023/10/31 11:02:53;;;;;;;3.92;1.00;;;12.40;99.90;;;;;;5134920;27;20396;-77
2023/10/31 11:05:19;;;;;;;2.70;0.80;;;12.40;99.90;;;;;;5135341;27;20063;-76
2023/10/31 11:07:46;;;;;;;3.58;1.05;;;12.30;99.90;;;;;;5134742;27;20035;-76
2023/10/31 11:10:12;;;;;;;2.30;1.05;;;12.30;99.90;;;;;;5134893;27;20068;-76
2023/10/31 11:12:41;;;;;;;2.45;0.80;;;12.20;99.90;;;;;;5134586;27;20026;-76
2023/10/31 11:15:08;;;;;;;1.20;0.70;;;12.20;99.90;;;;;;5134719;27;20437;-76
2023/10/31 11:17:37;;;;;;;1.80;0.60;;;12.10;99.90;;;;;;5134642;27;20023;-76
2023/10/31 11:20:04;;;;;;;1.88;1.00;;;12.10;99.90;;;;;;5135267;27;20110;-76
2023/10/31 11:22:41;;;;;;;2.17;1.00;;;12.10;99.90;;;;;;5135044;27;20099;-76
2023/10/31 11:25:31;;;;;;;5.82;1.80;;;12.10;99.90;;;;;;5135076;27;20126;-74
2023/10/31 11:28:10;;;;;;;1.83;1.10;;;12.10;99.90;;;;;;5134396;27;20444;-76
2023/10/31 11:30:36;;;;;;;2.50;0.80;;;12.00;99.90;;;;;;5134873;27;20023;-77
2023/10/31 11:33:03;;;;;;;3.15;0.90;;;12.00;99.90;;;;;;5135236;27;20114;-77
2023/10/31 11:35:33;;;;;;;2.08;0.73;;;12.00;99.90;;;;;;5135427;27;20045;-76
2023/10/31 11:38:30;;;;;;;3.00;1.10;;;11.90;99.90;;;;;;5118364;27;20020;-76
2023/10/31 11:41:01;;;;;;;3.25;0.90;;;11.90;99.90;;;;;;5140831;27;20280;-77
2023/10/31 11:43:41;;;;;;;2.97;1.13;;;11.90;99.90;;;;;;5142718;27;20052;-76
2023/10/31 11:46:19;;;;;;;1.52;0.70;;;11.90;99.90;;;;;;5137822;27;20510;-76
2023/10/31 11:48:53;;;;;;;2.72;1.20;;;11.90;99.90;;;;;;5135797;27;20051;-76
2023/10/31 11:51:19;;;;;;;3.15;1.10;;;11.90;99.90;;;;;;5135641;27;20019;-77
2023/10/31 11:53:45;;;;;;;1.52;1.00;;;11.90;99.90;;;;;;5134141;27;20494;-76
2023/10/31 11:56:11;;;;;;;1.42;1.00;;;11.90;99.90;;;;;;5134571;27;20031;-76
2023/10/31 11:58:37;;;;;;;1.35;0.90;;;11.90;99.90;;;;;;5134769;27;20474;-77
2023/10/31 12:01:05;;;;;;;0.98;0.77;;;11.80;99.90;;;;;;5134170;27;20027;-77
2023/10/31 12:03:42;;;;;;;1.38;0.77;;;11.80;99.90;;;;;;5116563;27;20031;-77
2023/10/31 12:06:09;;;;;;;3.13;0.80;;;11.90;99.90;;;;;;5134395;27;20118;-76
2023/10/31 12:08:40;;;;;;;2.10;1.00;;;11.80;99.90;;;;;;5133664;27;20417;-76
2023/10/31 12:11:11;;;;;;;2.77;0.90;;;11.90;99.90;;;;;;5134178;27;20471;-76
2023/10/31 12:13:39;;;;;;;4.70;1.00;;;11.80;99.90;;;;;;5134010;27;20033;-77
2023/10/31 12:16:06;;;;;;;3.53;0.90;;;11.80;99.90;;;;;;5115439;27;20432;-77
2023/10/31 12:18:36;;;;;;;1.67;1.02;;;11.80;99.90;;;;;;5133971;27;20046;-77
2023/10/31 12:21:02;;;;;;;1.65;1.00;;;11.80;99.90;;;;;;5133584;27;20110;-76
2023/10/31 12:23:28;;;;;;;1.33;0.75;;;11.80;99.90;;;;;;5133860;27;20481;-76
2023/10/31 12:25:54;;;;;;;1.92;1.08;;;11.80;99.90;;;;;;5133533;27;20035;-77
2023/10/31 12:28:24;;;;;;;2.95;1.20;;;11.80;99.90;;;;;;5133843;27;20030;-74
2023/10/31 12:30:54;;;;;;;2.97;0.70;;;11.80;99.90;;;;;;5133466;27;20080;-76
2023/10/31 12:33:24;;;;;;;1.58;0.93;;;11.80;99.90;;;;;;5133772;27;20456;-75
2023/10/31 12:35:52;;;;;;;1.52;1.15;;;11.80;99.90;;;;;;5133525;27;20023;-78
2023/10/31 12:38:19;;;;;;;2.08;1.00;;;11.80;99.90;;;;;;5133692;27;20031;-75
2023/10/31 12:40:45;;;;;;;2.13;1.00;;;11.80;99.90;;;;;;5133380;28;20456;-76
2023/10/31 12:43:11;;;;;;;1.13;0.68;;;11.80;99.90;;;;;;5133917;28;20122;-75
2023/10/31 12:45:37;;;;;;;2.10;0.70;;;11.80;99.90;;;;;;5133256;28;20038;-77